Time;durP1;ratioP1;P1;durP2;ratioP2;P2;SDS_P1;SDS_P2;PMS_P1;PMS_P2;Temp;Humidity;BMP_temperature;BMP_pressure;BME280_temperature;BME280_humidity;BME280_pressure;Samples;Min_cycle;Max_cycle;Signal;HPM_P1;HPM_P2
2022/09/22 00:00:59;;;;;;;2.05;0.90;;;;;;;12.28;100.00;94981.47;4981994;28;20030;-87
2022/09/22 00:03:29;;;;;;;0.95;0.52;;;;;;;12.43;97.59;94972.81;4982456;28;20030;-87
2022/09/22 00:06:08;;;;;;;0.68;0.55;;;;;;;12.54;94.26;94968.34;4982656;28;20050;-87
2022/09/22 00:08:36;;;;;;;0.85;0.50;;;;;;;11.76;95.74;94972.72;4982257;28;20030;-86
2022/09/22 00:11:04;;;;;;;1.25;0.50;;;;;;;11.57;100.00;94970.59;4981871;28;20042;-86
2022/09/22 00:13:31;;;;;;;0.85;0.60;;;;;;;12.18;93.37;94975.44;4999589;28;20037;-87
2022/09/22 00:15:58;;;;;;;1.25;0.60;;;;;;;12.04;94.63;94968.06;4982285;28;20380;-87
2022/09/22 00:18:23;;;;;;;3.00;1.23;;;;;;;12.07;93.70;94967.53;4965851;28;20026;-86
2022/09/22 00:20:49;;;;;;;1.55;0.63;;;;;;;12.29;90.89;94972.53;4981658;28;20038;-87
2022/09/22 00:23:14;;;;;;;2.35;0.52;;;;;;;12.55;92.39;94974.38;4982173;28;20061;-87
2022/09/22 00:25:40;;;;;;;1.30;0.55;;;;;;;12.66;87.53;94964.66;4966338;28;20121;-87
2022/09/22 00:28:05;;;;;;;1.02;0.50;;;;;;;12.69;84.85;94964.88;4981940;28;20376;-86
2022/09/22 00:30:31;;;;;;;1.27;0.80;;;;;;;12.80;84.50;94960.41;4964839;28;20113;-87
2022/09/22 00:32:56;;;;;;;0.75;0.55;;;;;;;12.89;82.81;94962.50;4982194;28;20053;-86
2022/09/22 00:35:22;;;;;;;1.23;0.47;;;;;;;12.91;80.86;94957.75;4965418;28;20030;-87
2022/09/22 00:37:48;;;;;;;1.05;0.60;;;;;;;13.05;80.00;94963.25;4965860;28;20026;-87
2022/09/22 00:40:14;;;;;;;0.60;0.50;;;;;;;12.28;90.86;94951.81;4981632;28;20041;-87
2022/09/22 00:42:39;;;;;;;1.30;0.60;;;;;;;12.85;84.83;94957.00;4981972;28;20317;-86
2022/09/22 00:45:05;;;;;;;1.80;0.60;;;;;;;12.47;89.47;94962.56;4981352;28;20030;-87
2022/09/22 00:47:40;;;;;;;3.65;1.08;;;;;;;12.77;91.67;94960.97;4981439;28;20436;-87
2022/09/22 00:50:17;;;;;;;1.95;0.68;;;;;;;12.34;92.98;94949.94;4942640;29;20031;-87
2022/09/22 00:53:06;;;;;;;1.55;0.70;;;;;;;11.92;97.97;94941.25;4978825;28;20464;-86
2022/09/22 00:55:52;;;;;;;3.15;1.73;;;;;;;11.25;100.00;94949.75;4978405;28;20361;-86
2022/09/22 00:58:28;;;;;;;1.05;0.70;;;;;;;11.59;100.00;94947.50;4961583;28;20129;-86
2022/09/22 01:00:55;;;;;;;0.95;0.55;;;;;;;11.87;99.80;94948.06;4961587;28;20038;-86
2022/09/22 01:03:22;;;;;;;8.45;0.82;;;;;;;11.84;100.00;94945.16;4961828;28;20065;-86
2022/09/22 01:05:57;;;;;;;1.30;0.90;;;;;;;12.20;100.00;94941.81;4961405;28;20057;-86
2022/09/22 01:08:23;;;;;;;2.97;0.50;;;;;;;11.91;99.47;94945.72;4945290;28;20027;-87
2022/09/22 01:10:50;;;;;;;1.58;0.70;;;;;;;11.70;100.00;94943.03;4945758;28;20023;-87
2022/09/22 01:13:18;;;;;;;2.58;0.70;;;;;;;11.68;100.00;94947.78;4961735;28;20033;-86
2022/09/22 01:16:03;;;;;;;1.08;0.70;;;;;;;11.50;100.00;94946.41;4961497;28;20441;-86
2022/09/22 01:19:07;;;;;;;2.40;0.80;;;;;;;12.02;100.00;94943.91;4978664;28;20517;-86
2022/09/22 01:21:32;;;;;;;1.33;0.50;;;;;;;11.07;100.00;94943.91;4942134;28;20353;-86
2022/09/22 01:24:21;;;;;;;2.10;0.85;;;;;;;11.59;100.00;94941.44;4978462;28;20035;-86
2022/09/22 01:27:32;;;;;;;1.00;0.50;;;;;;;11.92;99.62;94949.13;4961466;28;20030;-86
2022/09/22 01:30:24;;;;;;;2.10;0.70;;;;;;;11.27;100.00;94952.91;4884432;29;20044;-86
2022/09/22 01:33:10;;;;;;;0.60;0.60;;;;;;;11.59;100.00;94944.06;4977752;28;20433;-87
2022/09/22 01:35:44;;;;;;;1.60;0.70;;;;;;;11.84;98.09;94947.78;4961255;28;20070;-86
2022/09/22 01:38:33;;;;;;;0.60;0.60;;;;;;;11.36;100.00;94951.38;4978386;28;20503;-86
2022/09/22 01:41:14;;;;;;;1.80;0.57;;;;;;;11.47;100.00;94946.94;4977145;28;20034;-86
2022/09/22 01:43:53;;;;;;;0.90;0.40;;;;;;;11.88;96.60;94947.03;4961102;28;20039;-86
2022/09/22 01:46:24;;;;;;;0.82;0.70;;;;;;;11.85;94.98;94944.13;4960788;28;20121;-88
2022/09/22 01:48:50;;;;;;;1.67;0.65;;;;;;;11.38;98.54;94951.88;4961101;28;20117;-86
2022/09/22 01:51:20;;;;;;;0.50;0.50;;;;;;;11.94;92.96;94942.56;4960875;28;20423;-86
2022/09/22 01:53:53;;;;;;;1.95;0.85;;;;;;;11.94;92.67;94945.19;4961782;28;20065;-87
2022/09/22 01:56:20;;;;;;;2.03;0.90;;;;;;;12.02;89.64;94939.44;4961225;28;20037;-86
2022/09/22 01:58:48;;;;;;;0.60;0.60;;;;;;;12.11;85.05;94944.19;4944594;28;20042;-86
2022/09/22 02:01:17;;;;;;;1.38;0.43;;;;;;;11.90;89.26;94949.38;4960988;28;20061;-86
2022/09/22 02:03:50;;;;;;;2.42;0.65;;;;;;;11.59;93.87;94944.88;4960890;28;20129;-86
2022/09/22 02:06:28;;;;;;;0.73;0.52;;;;;;;12.12;89.62;94940.50;4960906;28;20432;-86
2022/09/22 02:09:04;;;;;;;1.33;0.50;;;;;;;12.27;86.57;94947.59;4960606;28;20443;-86
2022/09/22 02:11:30;;;;;;;0.85;0.68;;;;;;;11.87;89.89;94947.28;4960726;28;20325;-87
2022/09/22 02:13:56;;;;;;;1.20;0.60;;;;;;;11.87;91.37;94945.44;4945237;28;20113;-86
2022/09/22 02:16:22;;;;;;;1.20;0.75;;;;;;;12.11;88.89;94944.94;4960534;28;20117;-87
2022/09/22 02:19:10;;;;;;;0.77;0.65;;;;;;;11.60;93.67;94945.63;4960719;28;20027;-86
2022/09/22 02:21:37;;;;;;;1.25;0.60;;;;;;;12.05;91.60;94939.97;4960792;28;20038;-87
2022/09/22 02:24:03;;;;;;;2.33;0.70;;;;;;;12.08;90.44;94945.47;4944663;28;20038;-86
2022/09/22 02:26:30;;;;;;;2.20;0.70;;;;;;;12.06;89.33;94941.56;4977695;28;20340;-86
2022/09/22 02:29:02;;;;;;;0.82;0.50;;;;;;;12.14;89.53;94941.03;4960374;28;20322;-86
2022/09/22 02:31:30;;;;;;;3.67;1.67;;;;;;;11.57;95.73;94946.16;4977902;28;20500;-86
2022/09/22 02:33:56;;;;;;;3.85;1.80;;;;;;;11.05;100.00;94935.50;4960380;28;20031;-86
2022/09/22 02:36:27;;;;;;;10.50;4.18;;;;;;;10.88;100.00;94939.09;4944498;28;20341;-86
2022/09/22 02:39:09;;;;;;;8.57;3.83;;;;;;;10.78;100.00;94931.19;4977574;28;20035;-87
2022/09/22 02:41:46;;;;;;;13.05;5.40;;;;;;;10.75;100.00;94927.22;4960843;28;20053;-87
2022/09/22 02:44:24;;;;;;;15.02;6.47;;;;;;;10.98;100.00;94930.50;4960517;28;20105;-86
2022/09/22 02:47:01;;;;;;;6.20;2.90;;;;;;;10.92;100.00;94926.25;4960552;28;20034;-86
2022/09/22 02:49:27;;;;;;;4.53;2.03;;;;;;;10.81;100.00;94929.88;4960354;28;20042;-87
2022/09/22 02:51:53;;;;;;;7.63;3.53;;;;;;;10.85;100.00;94925.72;4960549;28;20039;-87
2022/09/22 02:54:19;;;;;;;3.65;1.95;;;;;;;11.07;100.00;94922.13;4963676;28;20036;-86
2022/09/22 02:56:45;;;;;;;3.97;1.60;;;;;;;11.26;100.00;94915.41;4964092;28;20344;-86
2022/09/22 02:59:10;;;;;;;2.65;1.00;;;;;;;11.33;100.00;94909.88;4948222;28;20042;-86
2022/09/22 03:01:36;;;;;;;2.20;1.20;;;;;;;11.49;100.00;94913.34;4981109;28;20357;-87
2022/09/22 03:04:02;;;;;;;2.33;1.25;;;;;;;11.63;100.00;94911.03;4964118;28;20035;-86
2022/09/22 03:06:27;;;;;;;3.25;0.95;;;;;;;11.10;100.00;94916.38;4981020;28;20037;-86
2022/09/22 03:08:53;;;;;;;2.05;1.10;;;;;;;11.33;100.00;94915.13;4980840;28;20027;-86
2022/09/22 03:11:18;;;;;;;5.63;1.58;;;;;;;10.99;100.00;94916.34;4963701;28;20133;-86
2022/09/22 03:13:44;;;;;;;2.92;0.85;;;;;;;11.02;100.00;94920.28;4947947;28;20066;-86
2022/09/22 03:16:09;;;;;;;3.47;0.90;;;;;;;11.40;100.00;94920.13;4948047;28;20397;-86
2022/09/22 03:18:35;;;;;;;3.83;1.00;;;;;;;11.51;100.00;94913.09;4963512;28;20114;-88
2022/09/22 03:21:00;;;;;;;0.95;0.68;;;;;;;11.32;100.00;94924.03;4947858;28;20034;-86
2022/09/22 03:23:26;;;;;;;2.03;0.93;;;;;;;11.64;100.00;94920.47;4963103;28;20050;-86
2022/09/22 03:25:51;;;;;;;1.33;0.75;;;;;;;11.42;100.00;94918.06;4963448;28;20030;-86
2022/09/22 03:28:17;;;;;;;2.92;1.00;;;;;;;10.73;100.00;94918.03;4947635;28;20041;-86
2022/09/22 03:30:43;;;;;;;0.60;0.60;;;;;;;11.26;100.00;94914.59;4947443;28;20034;-85
2022/09/22 03:33:09;;;;;;;1.10;0.80;;;;;;;11.30;100.00;94907.78;4963458;28;20035;-86
2022/09/22 03:35:34;;;;;;;4.45;0.80;;;;;;;10.87;100.00;94902.66;4963023;28;20050;-86
2022/09/22 03:38:03;;;;;;;1.33;1.00;;;;;;;11.00;100.00;94901.38;4963351;28;20102;-86
2022/09/22 03:40:29;;;;;;;1.98;0.80;;;;;;;10.94;100.00;94899.81;4963583;28;20089;-86
2022/09/22 03:42:54;;;;;;;1.20;0.82;;;;;;;11.36;100.00;94892.84;4963066;28;20396;-86
2022/09/22 03:45:20;;;;;;;1.85;0.85;;;;;;;11.16;100.00;94899.63;4962998;28;20042;-86
2022/09/22 03:47:45;;;;;;;4.15;1.40;;;;;;;10.89;100.00;94900.56;4962937;28;20376;-86
2022/09/22 03:50:11;;;;;;;5.50;1.13;;;;;;;10.87;100.00;94900.03;4962954;28;20106;-86
2022/09/22 03:52:36;;;;;;;1.63;0.90;;;;;;;10.91;100.00;94900.31;4962982;28;20034;-86
2022/09/22 03:55:02;;;;;;;1.15;0.70;;;;;;;10.52;100.00;94894.34;4963447;28;20125;-86
2022/09/22 03:57:29;;;;;;;1.70;0.95;;;;;;;10.49;100.00;94897.47;4980006;28;20487;-88
2022/09/22 03:59:54;;;;;;;1.27;0.88;;;;;;;10.86;100.00;94901.06;4963267;28;20417;-88
2022/09/22 04:02:19;;;;;;;0.90;0.70;;;;;;;11.04;100.00;94894.56;4947627;28;20034;-85
2022/09/22 04:04:45;;;;;;;1.10;0.80;;;;;;;10.40;100.00;94901.56;4961608;28;20031;-88
2022/09/22 04:07:11;;;;;;;1.40;0.65;;;;;;;10.86;100.00;94901.06;4963195;28;20034;-86
2022/09/22 04:09:36;;;;;;;1.02;0.68;;;;;;;11.17;100.00;94901.19;4946744;28;20085;-88
2022/09/22 04:12:02;;;;;;;1.30;0.80;;;;;;;11.21;100.00;94901.47;4962839;28;20046;-88
2022/09/22 04:14:27;;;;;;;8.05;1.13;;;;;;;11.15;100.00;94903.28;4962795;28;20428;-88
2022/09/22 04:16:53;;;;;;;1.60;0.90;;;;;;;11.21;100.00;94901.47;4962917;28;20038;-88
2022/09/22 04:19:18;;;;;;;5.00;1.02;;;;;;;11.21;100.00;94901.47;4962638;28;20058;-88
2022/09/22 04:21:44;;;;;;;3.50;1.08;;;;;;;10.65;100.00;94900.97;4963196;28;20030;-86
2022/09/22 04:24:10;;;;;;;2.53;1.00;;;;;;;10.28;100.00;94907.78;4962391;28;20038;-88
2022/09/22 04:26:37;;;;;;;1.40;0.90;;;;;;;10.46;100.00;94903.22;4962829;28;20433;-88
2022/09/22 04:29:02;;;;;;;1.55;0.93;;;;;;;10.96;100.00;94897.72;4962774;28;20027;-88
2022/09/22 04:31:28;;;;;;;2.53;0.90;;;;;;;11.07;100.00;94895.91;4962642;28;20037;-88
2022/09/22 04:33:53;;;;;;;0.93;0.88;;;;;;;10.46;100.00;94896.16;4962477;28;20034;-88
2022/09/22 04:36:18;;;;;;;5.00;1.10;;;;;;;10.84;100.00;94893.47;4962510;28;20035;-88
2022/09/22 04:38:44;;;;;;;1.23;0.90;;;;;;;11.12;100.00;94899.34;4979566;28;20062;-88
2022/09/22 04:41:09;;;;;;;4.32;0.82;;;;;;;11.15;100.00;94898.03;4946600;28;20027;-85
2022/09/22 04:43:35;;;;;;;3.17;0.85;;;;;;;10.34;100.00;94895.50;4962285;28;20121;-88
2022/09/22 04:46:00;;;;;;;1.40;0.80;;;;;;;10.41;100.00;94890.88;4962113;28;20341;-88
2022/09/22 04:48:26;;;;;;;1.00;0.90;;;;;;;10.68;100.00;94897.06;4962302;28;20026;-85
2022/09/22 04:50:51;;;;;;;1.00;0.80;;;;;;;10.79;100.00;94895.25;4962008;28;20027;-85
2022/09/22 04:53:17;;;;;;;1.88;1.10;;;;;;;10.56;100.00;94899.88;4961895;28;20121;-88
2022/09/22 04:55:42;;;;;;;2.20;0.88;;;;;;;11.02;100.00;94894.03;4962093;28;20491;-88
2022/09/22 04:58:08;;;;;;;2.13;1.00;;;;;;;11.23;100.00;94891.50;4946027;28;20045;-85
2022/09/22 05:00:33;;;;;;;1.88;0.85;;;;;;;11.01;100.00;94895.09;4978896;28;20037;-86
2022/09/22 05:03:00;;;;;;;2.58;0.80;;;;;;;10.63;100.00;94894.41;4961714;28;20030;-88
2022/09/22 05:05:26;;;;;;;3.42;0.90;;;;;;;10.36;100.00;94903.13;4962243;28;20035;-87
2022/09/22 05:07:53;;;;;;;3.25;0.82;;;;;;;10.43;100.00;94896.66;4961992;28;20054;-87
2022/09/22 05:10:21;;;;;;;2.92;0.90;;;;;;;10.99;100.00;94890.13;4961742;28;20058;-86
2022/09/22 05:12:47;;;;;;;2.80;0.90;;;;;;;10.78;100.00;94894.50;4945717;28;20081;-87
2022/09/22 05:15:13;;;;;;;1.67;1.02;;;;;;;10.45;100.00;94899.00;4979065;28;20034;-85
2022/09/22 05:17:50;;;;;;;3.65;0.85;;;;;;;10.66;100.00;94896.53;4978525;28;20038;-87
2022/09/22 05:20:16;;;;;;;1.40;0.90;;;;;;;10.39;100.00;94884.28;4961170;28;20106;-87
2022/09/22 05:22:42;;;;;;;1.77;0.90;;;;;;;10.41;100.00;94887.47;4977035;28;20085;-86
2022/09/22 05:25:12;;;;;;;2.72;0.82;;;;;;;10.33;100.00;94899.19;4961285;28;20042;-87
2022/09/22 05:27:52;;;;;;;1.10;0.80;;;;;;;10.83;100.00;94898.94;4977690;28;20069;-87
2022/09/22 05:30:19;;;;;;;3.35;0.93;;;;;;;11.30;100.00;94900.72;4977083;28;20034;-87
2022/09/22 05:32:46;;;;;;;2.80;0.80;;;;;;;11.38;100.00;94896.78;4960971;28;20035;-85
2022/09/22 05:35:13;;;;;;;2.55;0.70;;;;;;;11.58;100.00;94903.94;4977182;28;20085;-87
2022/09/22 05:37:41;;;;;;;1.55;0.70;;;;;;;11.57;100.00;94909.44;4977351;28;20042;-86
2022/09/22 05:40:07;;;;;;;1.75;0.73;;;;;;;11.70;100.00;94910.78;4976960;28;20337;-86
2022/09/22 05:42:33;;;;;;;0.98;0.75;;;;;;;12.03;100.00;94908.72;4961189;28;20035;-86
2022/09/22 05:44:58;;;;;;;1.90;0.80;;;;;;;12.16;100.00;94908.19;4976927;28;20125;-86
2022/09/22 05:47:24;;;;;;;2.13;0.80;;;;;;;11.37;100.00;94910.16;4976960;28;20048;-86
2022/09/22 05:49:49;;;;;;;1.55;0.68;;;;;;;11.90;100.00;94907.34;4978015;28;20038;-86
2022/09/22 05:52:15;;;;;;;1.13;1.00;;;;;;;11.82;100.00;94906.03;4976886;28;20035;-87
2022/09/22 05:54:40;;;;;;;2.30;0.70;;;;;;;12.35;100.00;94906.88;4977330;28;20036;-86
2022/09/22 05:57:05;;;;;;;1.45;0.73;;;;;;;11.82;100.00;94913.91;4977005;28;20042;-87
2022/09/22 05:59:31;;;;;;;1.50;0.70;;;;;;;12.52;100.00;94903.94;4977072;28;20045;-88
2022/09/22 06:01:56;;;;;;;2.88;0.70;;;;;;;12.67;100.00;94909.16;4976958;28;20089;-87
2022/09/22 06:04:22;;;;;;;1.20;0.65;;;;;;;12.23;100.00;94904.50;4976902;28;20033;-87
2022/09/22 06:06:47;;;;;;;1.00;0.60;;;;;;;12.49;100.00;94907.91;4976897;28;20098;-87
2022/09/22 06:09:13;;;;;;;1.52;0.90;;;;;;;12.92;100.00;94904.13;4976728;28;20458;-87
2022/09/22 06:11:38;;;;;;;1.85;0.75;;;;;;;13.17;100.00;94905.06;4977750;28;20038;-88
2022/09/22 06:14:04;;;;;;;1.75;1.00;;;;;;;13.31;98.50;94905.28;4978766;28;20034;-86
2022/09/22 06:16:30;;;;;;;4.55;1.10;;;;;;;13.17;94.88;94913.75;4963834;28;20344;-87
2022/09/22 06:18:56;;;;;;;3.72;0.90;;;;;;;13.20;95.35;94904.50;4981707;28;20030;-86
2022/09/22 06:21:22;;;;;;;3.50;0.80;;;;;;;13.25;99.25;94913.16;4960343;28;20421;-87
2022/09/22 06:23:47;;;;;;;2.95;1.00;;;;;;;13.59;95.24;94913.59;4960672;28;20448;-86
2022/09/22 06:26:13;;;;;;;2.63;1.00;;;;;;;13.77;95.58;94912.13;4960398;28;20027;-88
2022/09/22 06:28:38;;;;;;;1.52;0.82;;;;;;;13.68;95.21;94909.28;4979912;28;20038;-88
2022/09/22 06:31:04;;;;;;;2.33;0.68;;;;;;;13.64;98.75;94911.72;4980854;28;20429;-88
2022/09/22 06:33:29;;;;;;;3.08;1.10;;;;;;;13.88;96.86;94918.91;4981723;28;20037;-87
2022/09/22 06:35:56;;;;;;;0.98;0.70;;;;;;;14.10;95.63;94912.44;4981754;28;20128;-87
2022/09/22 06:38:22;;;;;;;0.98;0.68;;;;;;;14.20;93.12;94909.72;4964791;28;20027;-87
2022/09/22 06:40:47;;;;;;;3.00;0.75;;;;;;;14.36;91.72;94904.31;4967234;28;20037;-88
2022/09/22 06:43:21;;;;;;;2.00;0.80;;;;;;;14.51;92.97;94904.19;5001071;28;20030;-86
2022/09/22 06:45:50;;;;;;;1.83;0.73;;;;;;;14.49;92.26;94906.31;4983811;28;20121;-88
2022/09/22 06:48:17;;;;;;;0.88;0.65;;;;;;;14.57;93.55;94903.06;4967648;28;20136;-88
2022/09/22 06:50:50;;;;;;;1.92;0.80;;;;;;;14.68;93.11;94903.72;4983570;28;20030;-87
2022/09/22 06:53:16;;;;;;;;;;;;;;;14.82;91.68;94909.16;4984084;28;20088;-85
2022/09/22 06:55:42;;;;;;;2.03;0.88;;;;;;;14.79;92.64;94915.00;4983339;28;20292;-87
2022/09/22 06:58:08;;;;;;;1.02;0.63;;;;;;;15.06;91.86;94908.38;4983739;28;20026;-87
2022/09/22 07:00:34;;;;;;;1.00;0.68;;;;;;;15.24;91.16;94906.81;4967457;28;20026;-88
2022/09/22 07:03:19;;;;;;;4.15;0.70;;;;;;;15.27;92.03;94916.81;4983422;28;20420;-88
2022/09/22 07:05:56;;;;;;;2.10;0.90;;;;;;;15.44;92.03;94917.41;4983225;28;20028;-87
2022/09/22 07:08:23;;;;;;;1.95;0.70;;;;;;;15.45;93.57;94919.78;4983480;28;20100;-88
2022/09/22 07:11:03;;;;;;;4.75;0.60;;;;;;;15.46;88.91;94916.06;4983446;28;20121;-88
2022/09/22 07:13:30;;;;;;;1.77;1.00;;;;;;;14.94;93.87;94910.63;4983645;28;20428;-87
2022/09/22 07:16:03;;;;;;;1.20;0.75;;;;;;;15.34;90.01;94916.47;4983334;28;20136;-88
2022/09/22 07:18:29;;;;;;;1.85;0.88;;;;;;;15.35;89.10;94920.69;4983407;28;20034;-88
2022/09/22 07:21:10;;;;;;;1.92;0.95;;;;;;;15.25;92.36;94923.47;4983132;28;20026;-88
2022/09/22 07:23:36;;;;;;;1.60;0.65;;;;;;;15.21;91.91;94930.38;4983267;28;20096;-88
2022/09/22 07:26:03;;;;;;;1.63;0.70;;;;;;;15.68;88.56;94934.00;4983101;28;20462;-88
2022/09/22 07:28:30;;;;;;;2.58;0.90;;;;;;;15.66;88.51;94935.34;4982894;28;20443;-88
2022/09/22 07:31:00;;;;;;;4.00;0.80;;;;;;;15.74;91.33;94939.19;4982593;28;20040;-88
2022/09/22 07:33:25;;;;;;;2.83;0.77;;;;;;;15.83;88.68;94932.97;4982966;28;20454;-87
2022/09/22 07:36:01;;;;;;;1.13;0.70;;;;;;;16.06;88.24;94938.50;4966912;28;20034;-87
2022/09/22 07:38:35;;;;;;;0.95;0.70;;;;;;;15.99;88.51;94932.78;4982953;28;20124;-87
2022/09/22 07:41:03;;;;;;;1.05;0.50;;;;;;;16.33;82.88;94931.75;4983886;28;20026;-88
2022/09/22 07:43:29;;;;;;;5.18;0.50;;;;;;;16.51;81.32;94926.69;4982543;28;20037;-87
2022/09/22 07:45:58;;;;;;;1.92;0.60;;;;;;;16.45;77.69;94933.16;4982609;28;20321;-88
2022/09/22 07:48:36;;;;;;;0.57;0.50;;;;;;;16.63;73.63;94926.22;4983098;28;20030;-88
2022/09/22 07:51:07;;;;;;;4.75;0.50;;;;;;;16.85;70.60;94927.41;4984437;28;20347;-87
2022/09/22 07:53:36;;;;;;;0.90;0.50;;;;;;;16.76;71.92;94932.59;4982787;28;20081;-87
2022/09/22 07:56:15;;;;;;;1.00;0.60;;;;;;;16.39;75.56;94932.44;4982620;28;20038;-88
2022/09/22 07:58:52;;;;;;;2.80;0.73;;;;;;;16.89;72.32;94938.97;4982591;28;20348;-88
2022/09/22 08:01:19;;;;;;;1.13;0.60;;;;;;;16.73;68.46;94930.56;4982611;28;20076;-89
2022/09/22 08:03:45;;;;;;;1.27;0.60;;;;;;;16.76;67.97;94933.38;4982432;28;20033;-88
2022/09/22 08:06:11;;;;;;;0.75;0.60;;;;;;;16.88;66.34;94935.56;4982432;28;20022;-89
2022/09/22 08:08:42;;;;;;;1.08;0.60;;;;;;;17.00;70.04;94940.41;4982343;28;20089;-89
2022/09/22 08:11:13;;;;;;;2.13;0.60;;;;;;;16.88;68.11;94940.84;4982269;28;20395;-89
2022/09/22 08:13:41;;;;;;;2.10;0.63;;;;;;;16.81;67.88;94937.81;4982264;28;20038;-89
2022/09/22 08:16:09;;;;;;;5.28;0.60;;;;;;;16.52;68.20;94944.13;4982217;28;20038;-89
2022/09/22 08:18:35;;;;;;;2.13;0.65;;;;;;;16.98;66.42;94939.09;4966279;28;20343;-89
2022/09/22 08:21:01;;;;;;;2.35;0.68;;;;;;;17.10;64.17;94942.06;4966163;28;20186;-88
2022/09/22 08:23:30;;;;;;;0.80;0.50;;;;;;;17.15;64.21;94947.28;4999724;28;20041;-90
2022/09/22 08:25:56;;;;;;;1.77;0.60;;;;;;;16.94;65.14;94936.25;4981907;28;20036;-89
2022/09/22 08:28:22;;;;;;;2.78;0.63;;;;;;;17.40;65.23;94944.41;4982123;28;20084;-90
2022/09/22 08:30:47;;;;;;;1.63;0.60;;;;;;;17.25;63.90;94938.34;4981747;28;20034;-87
2022/09/22 08:33:13;;;;;;;1.10;0.60;;;;;;;17.55;63.61;94946.75;4982140;28;20034;-89
2022/09/22 08:35:49;;;;;;;0.68;0.50;;;;;;;17.23;65.51;94951.09;4981797;28;20351;-89
2022/09/22 08:38:16;;;;;;;1.27;0.80;;;;;;;17.26;73.19;94949.69;4981747;28;20045;-90
2022/09/22 08:40:42;;;;;;;0.70;0.40;;;;;;;17.35;64.12;94946.06;4965806;28;20129;-89
2022/09/22 08:43:09;;;;;;;2.65;0.80;;;;;;;17.39;64.18;94951.56;4981636;28;20029;-90
2022/09/22 08:45:37;;;;;;;1.25;0.70;;;;;;;16.89;66.12;94952.22;4981374;28;20451;-89
2022/09/22 08:53:55;;;;;;;0.93;0.60;;;;;;;17.56;67.85;94948.31;4983890;28;20126;-89
2022/09/22 08:56:50;;;;;;;1.30;0.77;;;;;;;17.84;62.87;94947.44;4965482;28;20030;-89
2022/09/22 08:59:21;;;;;;;2.35;0.80;;;;;;;17.26;61.51;94945.19;4981222;28;20034;-90
2022/09/22 09:02:05;;;;;;;2.78;0.80;;;;;;;17.79;61.88;94946.47;4981215;28;20113;-90
2022/09/22 09:04:49;;;;;;;;;;;;;;;17.17;63.55;94937.16;4998801;28;20404;-90
2022/09/22 09:07:24;;;;;;;1.27;0.85;;;;;;;17.39;63.27;94943.59;4981034;28;19917;-89
2022/09/22 09:10:28;;;;;;;2.08;0.77;;;;;;;17.94;64.25;94947.22;4981054;28;20027;-89
2022/09/22 09:13:09;;;;;;;3.90;0.60;;;;;;;17.97;63.02;94951.16;4981092;28;20141;-86
2022/09/22 09:15:48;;;;;;;1.48;1.00;;;;;;;17.63;63.26;94943.38;4981008;28;20030;-89
2022/09/22 09:18:15;;;;;;;4.15;1.05;;;;;;;17.61;66.05;94944.78;4981057;28;20332;-89
2022/09/22 09:20:45;;;;;;;0.95;0.60;;;;;;;18.68;60.20;94953.22;4981068;28;20168;-87
2022/09/22 09:23:17;;;;;;;1.90;0.90;;;;;;;19.24;59.72;94946.75;4981041;28;20028;-90
2022/09/22 09:25:43;;;;;;;1.38;0.90;;;;;;;18.69;59.14;94949.47;4980788;28;20026;-89
2022/09/22 09:28:15;;;;;;;1.10;0.65;;;;;;;19.36;61.98;94944.28;4964689;28;20029;-89
2022/09/22 09:30:49;;;;;;;1.42;0.85;;;;;;;19.48;57.39;94947.13;4980730;28;20375;-90
2022/09/22 09:33:40;;;;;;;1.67;0.80;;;;;;;19.25;57.73;94948.31;4980873;28;20444;-90
2022/09/22 09:36:14;;;;;;;2.35;0.77;;;;;;;19.76;53.32;94943.41;4977802;28;21544;-88
2022/09/22 09:38:49;;;;;;;4.07;0.93;;;;;;;20.64;55.71;94943.34;4953696;28;20125;-89
2022/09/22 09:41:18;;;;;;;1.10;0.80;;;;;;;19.77;53.09;94939.66;4961031;28;20035;-88
2022/09/22 09:43:44;;;;;;;3.88;1.00;;;;;;;20.14;52.14;94940.16;4978371;28;20031;-88
2022/09/22 09:46:40;;;;;;;3.75;0.90;;;;;;;19.99;51.16;94941.41;4961052;28;20033;-87
2022/09/22 09:49:22;;;;;;;3.25;1.27;;;;;;;20.05;52.30;94937.50;4978254;28;20128;-87
2022/09/22 09:52:00;;;;;;;1.83;0.98;;;;;;;20.25;55.45;94940.59;4961411;28;20037;-86
2022/09/22 09:54:29;;;;;;;2.08;1.08;;;;;;;20.10;49.35;94939.22;4960672;28;20026;-88
2022/09/22 09:57:06;;;;;;;1.30;0.88;;;;;;;19.14;50.38;94943.25;4978168;28;20066;-89
2022/09/22 10:02:20;;;;;;;3.65;0.80;;;;;;;20.99;50.75;94937.16;4962907;28;20479;-88
2022/09/22 10:04:56;;;;;;;3.30;1.02;;;;;;;20.89;50.28;94938.31;4961021;28;20031;-89
2022/09/22 10:07:43;;;;;;;1.33;0.70;;;;;;;21.09;50.67;94933.34;4961063;28;20034;-89
2022/09/22 10:10:28;;;;;;;0.98;0.80;;;;;;;20.81;50.05;94939.91;4961078;28;20097;-89
2022/09/22 10:13:02;;;;;;;2.50;0.98;;;;;;;19.82;49.12;94938.72;4977958;28;20109;-89
2022/09/22 10:15:28;;;;;;;3.22;0.70;;;;;;;19.04;50.19;94928.41;4960728;28;20357;-89
2022/09/22 10:17:53;;;;;;;3.15;0.82;;;;;;;19.65;51.66;94934.94;4960818;28;20080;-89
2022/09/22 10:20:21;;;;;;;1.95;0.70;;;;;;;20.05;50.80;94934.06;4960755;28;20449;-88
2022/09/22 10:22:47;;;;;;;4.72;1.23;;;;;;;19.86;51.97;94929.81;4977756;28;20035;-89
2022/09/22 10:25:27;;;;;;;1.48;0.77;;;;;;;19.56;51.17;94926.97;4960712;28;20081;-88
2022/09/22 10:28:04;;;;;;;1.02;0.63;;;;;;;18.22;53.25;94921.44;4960894;28;20022;-88
2022/09/22 10:30:36;;;;;;;1.70;1.20;;;;;;;17.45;56.56;94928.41;4960705;28;20433;-89
2022/09/22 10:33:17;;;;;;;3.28;0.88;;;;;;;18.11;54.50;94921.94;4961448;28;20121;-88
2022/09/22 10:36:06;;;;;;;3.22;1.30;;;;;;;18.69;56.51;94917.63;4960254;28;20437;-89
2022/09/22 10:38:33;;;;;;;1.52;0.77;;;;;;;17.81;54.43;94920.47;4977986;28;20035;-88
2022/09/22 10:41:06;;;;;;;1.85;0.90;;;;;;;17.99;56.28;94911.88;4960641;28;20117;-89
2022/09/22 10:43:35;;;;;;;;;;;;;;;18.17;55.85;94913.59;4961628;28;20062;-89
2022/09/22 10:46:15;;;;;;;1.85;0.80;;;;;;;18.47;56.42;94913.16;4977387;28;20312;-86
2022/09/22 10:48:52;;;;;;;2.83;0.90;;;;;;;18.25;55.78;94906.00;4960425;28;20031;-89
2022/09/22 10:51:26;;;;;;;1.15;0.70;;;;;;;19.12;57.29;94902.19;4960670;28;20034;-89
2022/09/22 10:54:18;;;;;;;3.20;0.70;;;;;;;18.96;52.55;94910.56;4977549;28;20448;-88
2022/09/22 10:56:53;;;;;;;2.83;1.00;;;;;;;18.22;53.16;94910.81;4960085;28;20408;-88
2022/09/22 10:59:31;;;;;;;1.60;0.95;;;;;;;17.95;54.68;94916.97;4960568;28;20030;-89
2022/09/22 11:02:17;;;;;;;3.25;0.80;;;;;;;18.19;54.51;94922.00;4977468;28;20500;-89
2022/09/22 11:04:49;;;;;;;4.18;1.10;;;;;;;18.40;53.43;94918.09;4977448;28;20031;-88
2022/09/22 11:13:31;;;;;;;2.15;0.90;;;;;;;18.66;54.62;94912.94;4977431;28;20062;-89
2022/09/22 11:16:12;;;;;;;1.10;0.82;;;;;;;19.23;57.94;94913.31;4980935;28;20041;-89
2022/09/22 11:18:56;;;;;;;4.97;0.82;;;;;;;19.15;52.35;94907.69;4980737;28;20030;-88
2022/09/22 11:21:42;;;;;;;2.28;0.70;;;;;;;19.63;52.70;94906.00;4962799;28;20031;-88
2022/09/22 11:24:37;;;;;;;2.53;0.90;;;;;;;18.92;52.12;94904.28;4948001;28;20425;-88
2022/09/22 11:27:02;;;;;;;1.95;0.70;;;;;;;19.45;51.72;94899.13;4980733;28;20117;-88
2022/09/22 11:29:40;;;;;;;2.28;0.80;;;;;;;18.42;52.01;94898.13;4963565;28;20066;-90
2022/09/22 11:32:30;;;;;;;4.47;0.95;;;;;;;18.64;52.06;94888.53;4963472;28;20444;-89
2022/09/22 11:35:40;;;;;;;2.53;0.70;;;;;;;19.25;53.04;94889.88;4980544;28;20034;-89
2022/09/22 11:38:08;;;;;;;1.55;0.80;;;;;;;18.50;54.20;94884.13;4927341;28;20059;-88
2022/09/22 11:40:42;;;;;;;2.95;1.10;;;;;;;18.34;53.18;94878.44;4979770;28;20027;-89
2022/09/22 11:43:29;;;;;;;2.70;1.10;;;;;;;18.66;56.09;94881.09;4980645;28;20042;-86
2022/09/22 11:46:09;;;;;;;1.38;0.70;;;;;;;18.80;53.48;94870.34;4980815;28;20026;-88
2022/09/22 11:49:02;;;;;;;3.83;1.20;;;;;;;19.90;54.75;94874.13;4966432;28;20348;-86
2022/09/22 11:51:41;;;;;;;1.33;0.70;;;;;;;20.86;48.79;94873.13;4982577;28;20035;-88
2022/09/22 11:54:16;;;;;;;1.05;0.80;;;;;;;20.48;47.63;94869.34;4982419;28;20038;-89
2022/09/22 11:56:46;;;;;;;3.15;0.77;;;;;;;19.95;49.32;94862.59;4982513;28;20038;-89
2022/09/22 11:59:38;;;;;;;4.05;1.00;;;;;;;19.63;50.37;94871.47;4981886;28;20038;-89
2022/09/22 12:02:25;;;;;;;3.05;0.77;;;;;;;19.41;49.71;94871.63;4982449;28;20018;-88
2022/09/22 12:05:12;;;;;;;1.77;0.80;;;;;;;19.17;51.92;94867.50;4999340;28;20026;-88